sensor_id;sensor_type;location;lat;lon;timestamp;temperature;humidity
76577;DHT22;65441;44.748;37.600;2023-01-04T00:01:22;10.51;85.56
76577;DHT22;65441;44.748;37.600;2023-01-04T00:03:56;10.56;85.62
76577;DHT22;65441;44.748;37.600;2023-01-04T00:06:30;10.57;85.49
76577;DHT22;65441;44.748;37.600;2023-01-04T00:09:04;10.53;85.53
76577;DHT22;65441;44.748;37.600;2023-01-04T00:11:38;10.48;85.74
76577;DHT22;65441;44.748;37.600;2023-01-04T00:14:14;10.40;86.00
76577;DHT22;65441;44.748;37.600;2023-01-04T00:16:50;10.36;85.78
76577;DHT22;65441;44.748;37.600;2023-01-04T00:19:23;10.39;85.78
76577;DHT22;65441;44.748;37.600;2023-01-04T00:21:57;10.46;85.44
76577;DHT22;65441;44.748;37.600;2023-01-04T00:24:31;10.51;85.16
76577;DHT22;65441;44.748;37.600;2023-01-04T00:27:10;10.53;84.79
76577;DHT22;65441;44.748;37.600;2023-01-04T00:29:49;10.48;84.72
76577;DHT22;65441;44.748;37.600;2023-01-04T00:32:23;10.43;85.20
76577;DHT22;65441;44.748;37.600;2023-01-04T00:34:57;10.48;83.89
76577;DHT22;65441;44.748;37.600;2023-01-04T00:37:31;10.41;82.21
76577;DHT22;65441;44.748;37.600;2023-01-04T00:40:06;10.38;81.06
76577;DHT22;65441;44.748;37.600;2023-01-04T00:42:40;10.34;81.62
76577;DHT22;65441;44.748;37.600;2023-01-04T00:45:15;10.30;81.52
76577;DHT22;65441;44.748;37.600;2023-01-04T00:47:49;10.16;82.39
76577;DHT22;65441;44.748;37.600;2023-01-04T00:50:23;10.23;82.78
76577;DHT22;65441;44.748;37.600;2023-01-04T00:52:57;10.24;82.72
76577;DHT22;65441;44.748;37.600;2023-01-04T00:55:31;10.30;82.37
76577;DHT22;65441;44.748;37.600;2023-01-04T00:58:05;10.35;82.55
76577;DHT22;65441;44.748;37.600;2023-01-04T01:00:41;10.34;82.65
76577;DHT22;65441;44.748;37.600;2023-01-04T01:03:15;10.34;82.57
76577;DHT22;65441;44.748;37.600;2023-01-04T01:05:49;10.38;82.57
76577;DHT22;65441;44.748;37.600;2023-01-04T01:08:23;10.37;82.84
76577;DHT22;65441;44.748;37.600;2023-01-04T01:11:02;10.40;82.78
76577;DHT22;65441;44.748;37.600;2023-01-04T01:13:37;10.45;82.60
76577;DHT22;65441;44.748;37.600;2023-01-04T01:16:16;10.51;82.92
76577;DHT22;65441;44.748;37.600;2023-01-04T01:18:50;10.50;82.93
76577;DHT22;65441;44.748;37.600;2023-01-04T01:21:26;10.45;82.35
76577;DHT22;65441;44.748;37.600;2023-01-04T01:24:00;10.42;81.60
76577;DHT22;65441;44.748;37.600;2023-01-04T01:26:51;10.42;82.29
76577;DHT22;65441;44.748;37.600;2023-01-04T01:29:26;10.45;81.87
76577;DHT22;65441;44.748;37.600;2023-01-04T01:32:01;10.48;81.93
76577;DHT22;65441;44.748;37.600;2023-01-04T01:34:35;10.49;82.23
76577;DHT22;65441;44.748;37.600;2023-01-04T01:37:08;10.44;82.06
76577;DHT22;65441;44.748;37.600;2023-01-04T01:39:42;10.41;81.84
76577;DHT22;65441;44.748;37.600;2023-01-04T01:42:19;10.37;81.56
76577;DHT22;65441;44.748;37.600;2023-01-04T01:44:58;10.39;81.68
76577;DHT22;65441;44.748;37.600;2023-01-04T01:47:38;10.41;81.45
76577;DHT22;65441;44.748;37.600;2023-01-04T01:50:20;10.44;80.89
76577;DHT22;65441;44.748;37.600;2023-01-04T01:52:56;10.46;81.56
76577;DHT22;65441;44.748;37.600;2023-01-04T01:55:32;10.52;82.41
76577;DHT22;65441;44.748;37.600;2023-01-04T01:58:08;10.43;81.72
76577;DHT22;65441;44.748;37.600;2023-01-04T02:00:44;10.38;81.30
76577;DHT22;65441;44.748;37.600;2023-01-04T02:03:19;10.41;81.71
76577;DHT22;65441;44.748;37.600;2023-01-04T02:05:55;10.38;81.05
76577;DHT22;65441;44.748;37.600;2023-01-04T02:08:30;10.31;80.98
76577;DHT22;65441;44.748;37.600;2023-01-04T02:11:04;10.34;81.77
76577;DHT22;65441;44.748;37.600;2023-01-04T02:13:40;10.41;81.71
76577;DHT22;65441;44.748;37.600;2023-01-04T02:16:42;10.41;81.42
76577;DHT22;65441;44.748;37.600;2023-01-04T02:19:37;10.37;80.65
76577;DHT22;65441;44.748;37.600;2023-01-04T02:25:42;10.36;80.42
76577;DHT22;65441;44.748;37.600;2023-01-04T02:28:34;10.29;79.59
76577;DHT22;65441;44.748;37.600;2023-01-04T02:31:20;10.33;79.39
76577;DHT22;65441;44.748;37.600;2023-01-04T02:34:04;10.31;79.64
76577;DHT22;65441;44.748;37.600;2023-01-04T02:36:47;10.27;78.67
76577;DHT22;65441;44.748;37.600;2023-01-04T02:39:34;10.19;79.60
76577;DHT22;65441;44.748;37.600;2023-01-04T02:42:15;10.20;79.78
76577;DHT22;65441;44.748;37.600;2023-01-04T02:44:55;10.28;79.96
76577;DHT22;65441;44.748;37.600;2023-01-04T02:47:33;10.29;80.13
76577;DHT22;65441;44.748;37.600;2023-01-04T02:50:27;10.39;80.14
76577;DHT22;65441;44.748;37.600;2023-01-04T02:53:12;10.36;80.34
76577;DHT22;65441;44.748;37.600;2023-01-04T02:55:51;10.36;81.10
76577;DHT22;65441;44.748;37.600;2023-01-04T02:58:39;10.34;81.33
76577;DHT22;65441;44.748;37.600;2023-01-04T03:01:26;10.30;81.43
76577;DHT22;65441;44.748;37.600;2023-01-04T03:04:33;10.25;81.80
76577;DHT22;65441;44.748;37.600;2023-01-04T03:07:33;10.28;81.99
76577;DHT22;65441;44.748;37.600;2023-01-04T03:10:16;10.28;81.54
76577;DHT22;65441;44.748;37.600;2023-01-04T03:12:55;10.23;81.62
76577;DHT22;65441;44.748;37.600;2023-01-04T03:15:32;10.19;81.73
76577;DHT22;65441;44.748;37.600;2023-01-04T03:18:13;10.20;81.98
76577;DHT22;65441;44.748;37.600;2023-01-04T03:20:51;10.22;80.51
76577;DHT22;65441;44.748;37.600;2023-01-04T03:23:28;10.21;80.64
76577;DHT22;65441;44.748;37.600;2023-01-04T03:26:23;10.19;80.49
76577;DHT22;65441;44.748;37.600;2023-01-04T03:29:20;10.19;80.37
76577;DHT22;65441;44.748;37.600;2023-01-04T03:32:17;10.07;80.81
76577;DHT22;65441;44.748;37.600;2023-01-04T03:35:12;9.90;81.46
76577;DHT22;65441;44.748;37.600;2023-01-04T03:38:04;9.91;81.98
76577;DHT22;65441;44.748;37.600;2023-01-04T03:41:01;9.94;82.19
76577;DHT22;65441;44.748;37.600;2023-01-04T03:44:00;9.91;82.32
76577;DHT22;65441;44.748;37.600;2023-01-04T03:46:52;9.98;82.65
76577;DHT22;65441;44.748;37.600;2023-01-04T03:49:48;9.98;82.45
76577;DHT22;65441;44.748;37.600;2023-01-04T03:52:23;9.91;82.97
76577;DHT22;65441;44.748;37.600;2023-01-04T03:55:01;10.00;82.54
76577;DHT22;65441;44.748;37.600;2023-01-04T03:57:36;9.93;83.11
76577;DHT22;65441;44.748;37.600;2023-01-04T04:00:13;9.94;82.98
76577;DHT22;65441;44.748;37.600;2023-01-04T04:02:53;9.93;83.56
76577;DHT22;65441;44.748;37.600;2023-01-04T04:05:41;9.88;83.66
76577;DHT22;65441;44.748;37.600;2023-01-04T04:08:35;9.90;83.54
76577;DHT22;65441;44.748;37.600;2023-01-04T04:11:10;9.91;83.71
76577;DHT22;65441;44.748;37.600;2023-01-04T04:13:58;9.83;84.04
76577;DHT22;65441;44.748;37.600;2023-01-04T04:16:32;9.71;83.65
76577;DHT22;65441;44.748;37.600;2023-01-04T04:19:06;9.76;83.81
76577;DHT22;65441;44.748;37.600;2023-01-04T04:21:40;9.65;84.52
76577;DHT22;65441;44.748;37.600;2023-01-04T04:24:15;9.71;84.88
76577;DHT22;65441;44.748;37.600;2023-01-04T04:26:51;9.72;84.43
76577;DHT22;65441;44.748;37.600;2023-01-04T04:29:26;9.68;84.22
76577;DHT22;65441;44.748;37.600;2023-01-04T04:32:00;9.55;84.87
76577;DHT22;65441;44.748;37.600;2023-01-04T04:34:34;9.55;84.32
76577;DHT22;65441;44.748;37.600;2023-01-04T04:37:08;9.55;83.96
76577;DHT22;65441;44.748;37.600;2023-01-04T04:39:42;9.60;83.35
76577;DHT22;65441;44.748;37.600;2023-01-04T04:42:17;9.52;82.39
76577;DHT22;65441;44.748;37.600;2023-01-04T04:44:50;9.50;82.78
76577;DHT22;65441;44.748;37.600;2023-01-04T04:47:24;9.48;82.80
76577;DHT22;65441;44.748;37.600;2023-01-04T04:49:58;9.32;83.80
76577;DHT22;65441;44.748;37.600;2023-01-04T04:52:33;9.37;83.54
76577;DHT22;65441;44.748;37.600;2023-01-04T04:55:07;9.35;83.37
76577;DHT22;65441;44.748;37.600;2023-01-04T04:57:43;9.33;83.43
76577;DHT22;65441;44.748;37.600;2023-01-04T05:00:17;9.26;83.27
76577;DHT22;65441;44.748;37.600;2023-01-04T05:02:51;9.24;83.35
76577;DHT22;65441;44.748;37.600;2023-01-04T05:05:25;9.15;83.44
76577;DHT22;65441;44.748;37.600;2023-01-04T05:07:59;9.10;83.77
76577;DHT22;65441;44.748;37.600;2023-01-04T05:10:32;9.20;83.66
76577;DHT22;65441;44.748;37.600;2023-01-04T05:13:09;9.20;83.13
76577;DHT22;65441;44.748;37.600;2023-01-04T05:15:46;9.25;83.14
76577;DHT22;65441;44.748;37.600;2023-01-04T05:18:21;9.03;83.64
76577;DHT22;65441;44.748;37.600;2023-01-04T05:20:55;8.87;84.27
76577;DHT22;65441;44.748;37.600;2023-01-04T05:23:29;8.97;84.42
76577;DHT22;65441;44.748;37.600;2023-01-04T05:26:03;9.06;84.40
76577;DHT22;65441;44.748;37.600;2023-01-04T05:28:38;9.05;83.55
76577;DHT22;65441;44.748;37.600;2023-01-04T05:31:12;9.11;83.84
76577;DHT22;65441;44.748;37.600;2023-01-04T05:33:46;9.15;83.88
76577;DHT22;65441;44.748;37.600;2023-01-04T05:36:20;9.04;83.95
76577;DHT22;65441;44.748;37.600;2023-01-04T05:38:54;9.12;83.82
76577;DHT22;65441;44.748;37.600;2023-01-04T05:41:27;9.14;83.38
76577;DHT22;65441;44.748;37.600;2023-01-04T05:44:20;9.14;83.04
76577;DHT22;65441;44.748;37.600;2023-01-04T05:46:54;9.05;83.21
76577;DHT22;65441;44.748;37.600;2023-01-04T05:49:28;9.07;83.49
76577;DHT22;65441;44.748;37.600;2023-01-04T05:52:02;8.93;82.90
76577;DHT22;65441;44.748;37.600;2023-01-04T05:54:36;8.95;83.58
76577;DHT22;65441;44.748;37.600;2023-01-04T05:57:10;8.92;83.32
76577;DHT22;65441;44.748;37.600;2023-01-04T05:59:45;8.97;83.97
76577;DHT22;65441;44.748;37.600;2023-01-04T06:02:21;9.02;83.66
76577;DHT22;65441;44.748;37.600;2023-01-04T06:04:55;9.06;83.69
76577;DHT22;65441;44.748;37.600;2023-01-04T06:07:29;9.07;83.83
76577;DHT22;65441;44.748;37.600;2023-01-04T06:10:04;9.02;84.16
76577;DHT22;65441;44.748;37.600;2023-01-04T06:12:39;9.12;84.01
76577;DHT22;65441;44.748;37.600;2023-01-04T06:15:15;9.16;83.84
76577;DHT22;65441;44.748;37.600;2023-01-04T06:17:49;9.26;83.89
76577;DHT22;65441;44.748;37.600;2023-01-04T06:20:23;9.27;83.42
76577;DHT22;65441;44.748;37.600;2023-01-04T06:22:57;9.34;83.01
76577;DHT22;65441;44.748;37.600;2023-01-04T06:25:31;9.23;83.61
76577;DHT22;65441;44.748;37.600;2023-01-04T06:28:05;9.23;83.46
76577;DHT22;65441;44.748;37.600;2023-01-04T06:30:40;9.41;83.18
76577;DHT22;65441;44.748;37.600;2023-01-04T06:33:14;9.70;82.55
76577;DHT22;65441;44.748;37.600;2023-01-04T06:35:53;10.99;77.58
76577;DHT22;65441;44.748;37.600;2023-01-04T06:38:27;11.43;75.99
76577;DHT22;65441;44.748;37.600;2023-01-04T06:41:01;11.34;77.15
76577;DHT22;65441;44.748;37.600;2023-01-04T06:43:35;11.37;77.52
76577;DHT22;65441;44.748;37.600;2023-01-04T06:46:11;11.27;77.49
76577;DHT22;65441;44.748;37.600;2023-01-04T06:48:45;11.23;77.58
76577;DHT22;65441;44.748;37.600;2023-01-04T06:51:18;11.27;76.82
76577;DHT22;65441;44.748;37.600;2023-01-04T06:53:52;11.27;77.63
76577;DHT22;65441;44.748;37.600;2023-01-04T06:56:27;11.30;75.70
76577;DHT22;65441;44.748;37.600;2023-01-04T06:59:02;11.37;77.99
76577;DHT22;65441;44.748;37.600;2023-01-04T07:01:37;11.39;77.66
76577;DHT22;65441;44.748;37.600;2023-01-04T07:04:11;11.85;75.83
76577;DHT22;65441;44.748;37.600;2023-01-04T07:06:45;12.71;73.26
76577;DHT22;65441;44.748;37.600;2023-01-04T07:09:19;12.47;74.05
76577;DHT22;65441;44.748;37.600;2023-01-04T07:11:53;12.25;73.37
76577;DHT22;65441;44.748;37.600;2023-01-04T07:14:32;12.05;75.07
76577;DHT22;65441;44.748;37.600;2023-01-04T07:17:07;11.98;76.26
76577;DHT22;65441;44.748;37.600;2023-01-04T07:19:41;12.03;76.93
76577;DHT22;65441;44.748;37.600;2023-01-04T07:22:15;12.05;76.70
76577;DHT22;65441;44.748;37.600;2023-01-04T07:24:49;11.99;75.52
76577;DHT22;65441;44.748;37.600;2023-01-04T07:27:24;11.90;74.89
76577;DHT22;65441;44.748;37.600;2023-01-04T07:29:59;11.87;74.99
76577;DHT22;65441;44.748;37.600;2023-01-04T07:32:34;11.69;74.27
76577;DHT22;65441;44.748;37.600;2023-01-04T07:35:09;11.66;75.12
76577;DHT22;65441;44.748;37.600;2023-01-04T07:37:43;11.58;74.32
76577;DHT22;65441;44.748;37.600;2023-01-04T07:40:17;11.60;75.01
76577;DHT22;65441;44.748;37.600;2023-01-04T07:42:57;11.69;74.99
76577;DHT22;65441;44.748;37.600;2023-01-04T07:45:31;11.74;75.79
76577;DHT22;65441;44.748;37.600;2023-01-04T07:48:08;11.73;74.67
76577;DHT22;65441;44.748;37.600;2023-01-04T07:50:43;11.71;74.69
76577;DHT22;65441;44.748;37.600;2023-01-04T07:53:18;11.87;77.08
76577;DHT22;65441;44.748;37.600;2023-01-04T07:55:56;11.71;75.16
76577;DHT22;65441;44.748;37.600;2023-01-04T07:58:32;11.71;76.47
76577;DHT22;65441;44.748;37.600;2023-01-04T08:01:06;11.60;76.55
76577;DHT22;65441;44.748;37.600;2023-01-04T08:03:43;11.59;77.17
76577;DHT22;65441;44.748;37.600;2023-01-04T08:06:19;11.56;77.64
76577;DHT22;65441;44.748;37.600;2023-01-04T08:08:54;11.57;77.17
76577;DHT22;65441;44.748;37.600;2023-01-04T08:11:33;11.54;77.30
76577;DHT22;65441;44.748;37.600;2023-01-04T08:14:09;11.60;77.47
76577;DHT22;65441;44.748;37.600;2023-01-04T08:16:43;11.58;77.51
76577;DHT22;65441;44.748;37.600;2023-01-04T08:19:19;11.60;78.31
76577;DHT22;65441;44.748;37.600;2023-01-04T08:21:53;11.46;77.63
76577;DHT22;65441;44.748;37.600;2023-01-04T08:24:27;11.53;78.49
76577;DHT22;65441;44.748;37.600;2023-01-04T08:27:01;11.55;78.89
76577;DHT22;65441;44.748;37.600;2023-01-04T08:29:36;11.57;78.52
76577;DHT22;65441;44.748;37.600;2023-01-04T08:32:10;11.56;78.01
76577;DHT22;65441;44.748;37.600;2023-01-04T08:34:45;11.58;78.51
76577;DHT22;65441;44.748;37.600;2023-01-04T08:37:19;11.57;78.28
76577;DHT22;65441;44.748;37.600;2023-01-04T08:39:53;11.61;78.90
76577;DHT22;65441;44.748;37.600;2023-01-04T08:42:27;11.51;79.07
76577;DHT22;65441;44.748;37.600;2023-01-04T08:45:02;11.59;79.37
76577;DHT22;65441;44.748;37.600;2023-01-04T08:47:36;11.47;79.07
76577;DHT22;65441;44.748;37.600;2023-01-04T08:50:12;11.34;79.75
76577;DHT22;65441;44.748;37.600;2023-01-04T08:52:48;11.27;79.15
76577;DHT22;65441;44.748;37.600;2023-01-04T08:55:22;11.29;79.91
76577;DHT22;65441;44.748;37.600;2023-01-04T08:57:55;11.46;79.76
76577;DHT22;65441;44.748;37.600;2023-01-04T09:00:33;11.47;79.26
76577;DHT22;65441;44.748;37.600;2023-01-04T09:03:07;11.40;79.22
76577;DHT22;65441;44.748;37.600;2023-01-04T09:05:42;11.27;78.11
76577;DHT22;65441;44.748;37.600;2023-01-04T09:08:17;11.19;79.01
76577;DHT22;65441;44.748;37.600;2023-01-04T09:10:51;11.13;78.35
76577;DHT22;65441;44.748;37.600;2023-01-04T09:13:25;11.19;78.73
76577;DHT22;65441;44.748;37.600;2023-01-04T09:16:00;11.00;78.79
76577;DHT22;65441;44.748;37.600;2023-01-04T09:18:34;11.07;78.83
76577;DHT22;65441;44.748;37.600;2023-01-04T09:21:12;11.01;79.08
76577;DHT22;65441;44.748;37.600;2023-01-04T09:23:47;11.00;79.72
76577;DHT22;65441;44.748;37.600;2023-01-04T09:26:22;11.12;79.24
76577;DHT22;65441;44.748;37.600;2023-01-04T09:28:56;11.17;79.94
76577;DHT22;65441;44.748;37.600;2023-01-04T09:31:30;11.33;79.62
76577;DHT22;65441;44.748;37.600;2023-01-04T09:34:05;11.40;79.30
76577;DHT22;65441;44.748;37.600;2023-01-04T09:36:40;11.28;79.58
76577;DHT22;65441;44.748;37.600;2023-01-04T09:39:15;11.24;79.70
76577;DHT22;65441;44.748;37.600;2023-01-04T09:41:54;11.29;79.93
76577;DHT22;65441;44.748;37.600;2023-01-04T09:44:37;11.15;80.09
76577;DHT22;65441;44.748;37.600;2023-01-04T09:47:33;11.01;80.75
76577;DHT22;65441;44.748;37.600;2023-01-04T09:50:12;11.04;80.65
76577;DHT22;65441;44.748;37.600;2023-01-04T09:53:00;11.04;80.94
76577;DHT22;65441;44.748;37.600;2023-01-04T09:55:38;10.97;80.24
76577;DHT22;65441;44.748;37.600;2023-01-04T09:58:21;11.04;80.63
76577;DHT22;65441;44.748;37.600;2023-01-04T10:01:01;11.11;80.41
76577;DHT22;65441;44.748;37.600;2023-01-04T10:03:37;11.07;79.91
76577;DHT22;65441;44.748;37.600;2023-01-04T10:06:13;10.94;79.84
76577;DHT22;65441;44.748;37.600;2023-01-04T10:08:49;10.92;80.56
76577;DHT22;65441;44.748;37.600;2023-01-04T10:11:31;10.84;80.96
76577;DHT22;65441;44.748;37.600;2023-01-04T10:14:17;10.87;80.91
76577;DHT22;65441;44.748;37.600;2023-01-04T10:17:04;11.08;80.44
76577;DHT22;65441;44.748;37.600;2023-01-04T10:19:49;11.10;79.98
76577;DHT22;65441;44.748;37.600;2023-01-04T10:22:34;11.07;79.88
76577;DHT22;65441;44.748;37.600;2023-01-04T10:25:21;11.16;79.43
76577;DHT22;65441;44.748;37.600;2023-01-04T10:28:07;11.18;79.82
76577;DHT22;65441;44.748;37.600;2023-01-04T10:30:44;11.30;80.37
76577;DHT22;65441;44.748;37.600;2023-01-04T10:33:27;11.26;79.21
76577;DHT22;65441;44.748;37.600;2023-01-04T10:36:06;11.43;79.69
76577;DHT22;65441;44.748;37.600;2023-01-04T10:38:46;11.37;79.27
76577;DHT22;65441;44.748;37.600;2023-01-04T10:41:27;11.22;78.97
76577;DHT22;65441;44.748;37.600;2023-01-04T10:44:10;11.15;79.57
76577;DHT22;65441;44.748;37.600;2023-01-04T10:46:52;11.17;79.17
76577;DHT22;65441;44.748;37.600;2023-01-04T10:49:39;11.17;79.34
76577;DHT22;65441;44.748;37.600;2023-01-04T10:52:17;11.15;79.72
76577;DHT22;65441;44.748;37.600;2023-01-04T10:54:56;11.03;79.38
76577;DHT22;65441;44.748;37.600;2023-01-04T10:57:40;10.94;79.49
76577;DHT22;65441;44.748;37.600;2023-01-04T11:00:18;10.92;79.52
76577;DHT22;65441;44.748;37.600;2023-01-04T11:02:58;10.77;79.65
76577;DHT22;65441;44.748;37.600;2023-01-04T11:05:38;10.60;80.14
76577;DHT22;65441;44.748;37.600;2023-01-04T11:08:18;10.62;80.53
76577;DHT22;65441;44.748;37.600;2023-01-04T11:10:57;10.48;81.14
76577;DHT22;65441;44.748;37.600;2023-01-04T11:13:34;10.55;81.23
76577;DHT22;65441;44.748;37.600;2023-01-04T11:16:10;10.48;80.69
76577;DHT22;65441;44.748;37.600;2023-01-04T11:18:44;10.38;81.62
76577;DHT22;65441;44.748;37.600;2023-01-04T11:21:21;10.48;81.63
76577;DHT22;65441;44.748;37.600;2023-01-04T11:23:59;10.21;82.45
76577;DHT22;65441;44.748;37.600;2023-01-04T11:26:36;10.08;83.43
76577;DHT22;65441;44.748;37.600;2023-01-04T11:29:25;10.06;83.71
76577;DHT22;65441;44.748;37.600;2023-01-04T11:32:07;9.90;84.26
76577;DHT22;65441;44.748;37.600;2023-01-04T11:34:46;9.86;84.35
76577;DHT22;65441;44.748;37.600;2023-01-04T11:37:27;9.70;84.91
76577;DHT22;65441;44.748;37.600;2023-01-04T11:40:21;9.64;85.02
76577;DHT22;65441;44.748;37.600;2023-01-04T11:43:13;9.55;85.34
76577;DHT22;65441;44.748;37.600;2023-01-04T11:45:58;9.48;85.70
76577;DHT22;65441;44.748;37.600;2023-01-04T11:48:35;9.31;85.79
76577;DHT22;65441;44.748;37.600;2023-01-04T11:51:19;9.42;85.28
76577;DHT22;65441;44.748;37.600;2023-01-04T11:53:57;9.34;85.39
76577;DHT22;65441;44.748;37.600;2023-01-04T11:56:33;9.24;86.17
76577;DHT22;65441;44.748;37.600;2023-01-04T11:59:14;9.22;85.85
76577;DHT22;65441;44.748;37.600;2023-01-04T12:02:09;9.17;86.36
76577;DHT22;65441;44.748;37.600;2023-01-04T12:04:43;9.08;86.27
76577;DHT22;65441;44.748;37.600;2023-01-04T12:07:27;9.17;86.08
76577;DHT22;65441;44.748;37.600;2023-01-04T12:10:15;9.04;86.30
76577;DHT22;65441;44.748;37.600;2023-01-04T12:12:50;9.08;86.43
76577;DHT22;65441;44.748;37.600;2023-01-04T12:15:28;9.20;85.69
76577;DHT22;65441;44.748;37.600;2023-01-04T12:18:11;9.21;85.43
76577;DHT22;65441;44.748;37.600;2023-01-04T12:20:45;8.90;86.23
76577;DHT22;65441;44.748;37.600;2023-01-04T12:23:20;8.85;86.58
76577;DHT22;65441;44.748;37.600;2023-01-04T12:25:55;8.86;86.75
76577;DHT22;65441;44.748;37.600;2023-01-04T12:28:31;8.89;86.77
76577;DHT22;65441;44.748;37.600;2023-01-04T12:31:28;8.82;86.88
76577;DHT22;65441;44.748;37.600;2023-01-04T12:34:41;8.89;86.38
76577;DHT22;65441;44.748;37.600;2023-01-04T12:37:45;8.94;86.37
76577;DHT22;65441;44.748;37.600;2023-01-04T12:40:51;9.05;85.71
76577;DHT22;65441;44.748;37.600;2023-01-04T12:43:26;8.96;86.00
76577;DHT22;65441;44.748;37.600;2023-01-04T12:46:31;8.83;86.17
76577;DHT22;65441;44.748;37.600;2023-01-04T12:49:50;8.92;86.00
76577;DHT22;65441;44.748;37.600;2023-01-04T12:52:44;8.78;86.29
76577;DHT22;65441;44.748;37.600;2023-01-04T13:01:38;8.60;85.91
76577;DHT22;65441;44.748;37.600;2023-01-04T13:04:28;8.72;85.71
76577;DHT22;65441;44.748;37.600;2023-01-04T13:07:08;8.76;85.35
76577;DHT22;65441;44.748;37.600;2023-01-04T13:09:56;8.77;84.74
76577;DHT22;65441;44.748;37.600;2023-01-04T13:12:58;8.68;84.93
76577;DHT22;65441;44.748;37.600;2023-01-04T13:15:42;8.59;85.07
76577;DHT22;65441;44.748;37.600;2023-01-04T13:18:32;8.51;85.06
76577;DHT22;65441;44.748;37.600;2023-01-04T13:21:12;8.57;84.99
76577;DHT22;65441;44.748;37.600;2023-01-04T13:23:51;8.59;84.88
76577;DHT22;65441;44.748;37.600;2023-01-04T13:26:34;8.68;84.55
76577;DHT22;65441;44.748;37.600;2023-01-04T13:29:13;8.58;84.30
76577;DHT22;65441;44.748;37.600;2023-01-04T13:31:51;8.57;84.35
76577;DHT22;65441;44.748;37.600;2023-01-04T13:34:29;8.48;84.01
76577;DHT22;65441;44.748;37.600;2023-01-04T13:37:14;8.47;84.30
76577;DHT22;65441;44.748;37.600;2023-01-04T13:39:51;8.44;83.74
76577;DHT22;65441;44.748;37.600;2023-01-04T13:42:35;8.42;83.60
76577;DHT22;65441;44.748;37.600;2023-01-04T13:45:30;8.35;83.67
76577;DHT22;65441;44.748;37.600;2023-01-04T13:48:09;8.39;83.87
76577;DHT22;65441;44.748;37.600;2023-01-04T13:50:45;8.41;83.23
76577;DHT22;65441;44.748;37.600;2023-01-04T13:53:31;8.39;83.51
76577;DHT22;65441;44.748;37.600;2023-01-04T13:56:17;8.38;83.12
76577;DHT22;65441;44.748;37.600;2023-01-04T13:58:52;8.38;82.57
76577;DHT22;65441;44.748;37.600;2023-01-04T14:01:29;8.23;83.26
76577;DHT22;65441;44.748;37.600;2023-01-04T14:04:05;8.19;83.52
76577;DHT22;65441;44.748;37.600;2023-01-04T14:06:41;8.16;83.48
76577;DHT22;65441;44.748;37.600;2023-01-04T14:09:17;8.18;83.02
76577;DHT22;65441;44.748;37.600;2023-01-04T14:11:56;8.26;83.67
76577;DHT22;65441;44.748;37.600;2023-01-04T14:14:37;8.15;82.97
76577;DHT22;65441;44.748;37.600;2023-01-04T14:17:22;8.14;82.49
76577;DHT22;65441;44.748;37.600;2023-01-04T14:19:59;8.13;82.55
76577;DHT22;65441;44.748;37.600;2023-01-04T14:22:41;8.03;82.49
76577;DHT22;65441;44.748;37.600;2023-01-04T14:25:40;8.08;82.26
76577;DHT22;65441;44.748;37.600;2023-01-04T14:28:40;7.99;83.07
76577;DHT22;65441;44.748;37.600;2023-01-04T14:31:35;7.97;82.55
76577;DHT22;65441;44.748;37.600;2023-01-04T14:34:12;7.98;82.54
76577;DHT22;65441;44.748;37.600;2023-01-04T14:37:02;7.99;82.24
76577;DHT22;65441;44.748;37.600;2023-01-04T14:39:37;7.91;82.45
76577;DHT22;65441;44.748;37.600;2023-01-04T14:42:23;7.90;82.39
76577;DHT22;65441;44.748;37.600;2023-01-04T14:44:59;7.89;82.07
76577;DHT22;65441;44.748;37.600;2023-01-04T14:47:33;7.85;82.23
76577;DHT22;65441;44.748;37.600;2023-01-04T14:50:07;7.82;82.39
76577;DHT22;65441;44.748;37.600;2023-01-04T14:52:48;7.76;82.29
76577;DHT22;65441;44.748;37.600;2023-01-04T14:55:22;7.75;82.50
76577;DHT22;65441;44.748;37.600;2023-01-04T14:57:56;7.63;82.73
76577;DHT22;65441;44.748;37.600;2023-01-04T15:00:32;7.64;82.69
76577;DHT22;65441;44.748;37.600;2023-01-04T15:03:06;7.68;82.42
76577;DHT22;65441;44.748;37.600;2023-01-04T15:05:42;7.64;82.39
76577;DHT22;65441;44.748;37.600;2023-01-04T15:08:17;7.53;83.16
76577;DHT22;65441;44.748;37.600;2023-01-04T15:10:53;7.52;82.97
76577;DHT22;65441;44.748;37.600;2023-01-04T15:13:27;7.49;83.30
76577;DHT22;65441;44.748;37.600;2023-01-04T15:16:04;7.49;83.76
76577;DHT22;65441;44.748;37.600;2023-01-04T15:18:39;7.46;84.09
76577;DHT22;65441;44.748;37.600;2023-01-04T15:21:13;7.46;84.23
76577;DHT22;65441;44.748;37.600;2023-01-04T15:23:47;7.39;84.98
76577;DHT22;65441;44.748;37.600;2023-01-04T15:26:21;7.35;85.04
76577;DHT22;65441;44.748;37.600;2023-01-04T15:28:55;7.35;85.29
76577;DHT22;65441;44.748;37.600;2023-01-04T15:31:30;7.31;85.93
76577;DHT22;65441;44.748;37.600;2023-01-04T15:34:05;7.26;85.78
76577;DHT22;65441;44.748;37.600;2023-01-04T15:36:39;7.25;86.09
76577;DHT22;65441;44.748;37.600;2023-01-04T15:39:13;7.22;86.24
76577;DHT22;65441;44.748;37.600;2023-01-04T15:41:47;7.12;86.54
76577;DHT22;65441;44.748;37.600;2023-01-04T15:44:50;7.13;86.60
76577;DHT22;65441;44.748;37.600;2023-01-04T15:47:27;7.04;87.08
76577;DHT22;65441;44.748;37.600;2023-01-04T15:50:01;7.01;86.92
76577;DHT22;65441;44.748;37.600;2023-01-04T15:52:37;6.97;87.03
76577;DHT22;65441;44.748;37.600;2023-01-04T15:55:11;6.90;87.40
76577;DHT22;65441;44.748;37.600;2023-01-04T15:57:46;6.94;87.48
76577;DHT22;65441;44.748;37.600;2023-01-04T16:00:21;7.02;87.01
76577;DHT22;65441;44.748;37.600;2023-01-04T16:02:57;6.94;87.56
76577;DHT22;65441;44.748;37.600;2023-01-04T16:05:31;6.94;87.51
76577;DHT22;65441;44.748;37.600;2023-01-04T16:08:05;6.88;87.87
76577;DHT22;65441;44.748;37.600;2023-01-04T16:10:39;6.83;87.71
76577;DHT22;65441;44.748;37.600;2023-01-04T16:13:13;6.81;87.70
76577;DHT22;65441;44.748;37.600;2023-01-04T16:15:47;6.70;87.12
76577;DHT22;65441;44.748;37.600;2023-01-04T16:18:24;6.66;86.82
76577;DHT22;65441;44.748;37.600;2023-01-04T16:20:58;6.52;86.90
76577;DHT22;65441;44.748;37.600;2023-01-04T16:23:32;6.43;86.80
76577;DHT22;65441;44.748;37.600;2023-01-04T16:26:07;6.43;86.92
76577;DHT22;65441;44.748;37.600;2023-01-04T16:28:41;6.46;86.93
76577;DHT22;65441;44.748;37.600;2023-01-04T16:31:15;6.53;86.18
76577;DHT22;65441;44.748;37.600;2023-01-04T16:33:52;6.48;86.03
76577;DHT22;65441;44.748;37.600;2023-01-04T16:36:27;6.22;86.48
76577;DHT22;65441;44.748;37.600;2023-01-04T16:39:01;6.15;86.53
76577;DHT22;65441;44.748;37.600;2023-01-04T16:41:35;6.08;86.90
76577;DHT22;65441;44.748;37.600;2023-01-04T16:44:09;6.01;87.01